Time;durP1;ratioP1;P1;durP2;ratioP2;P2;SDS_P1;SDS_P2;PMS_P1;PMS_P2;Temp;Humidity;BMP_temperature;BMP_pressure;BME280_temperature;BME280_humidity;BME280_pressure;Samples;Min_cycle;Max_cycle;Signal;HPM_P1;HPM_P2
2021/09/05 00:00:26;;;;;;;4.10;2.83;;;;;;;;;;5003602;28;20905;-70
2021/09/05 00:02:52;;;;;;;3.13;2.83;;;;;;;;;;4994159;28;20874;-70
2021/09/05 00:05:19;;;;;;;1.50;1.40;;;;;;;;;;4995514;28;20495;-72
2021/09/05 00:07:45;;;;;;;4.27;1.70;;;;;;;;;;4993131;28;20444;-72
2021/09/05 00:10:11;;;;;;;1.53;1.20;;;;;;;;;;4993089;28;20427;-72
2021/09/05 00:12:37;;;;;;;8.73;1.67;;;;;;;;;;4999102;28;20903;-72
2021/09/05 00:15:05;;;;;;;9.43;1.70;;;;;;;;;;4993636;28;20453;-72
2021/09/05 00:17:31;;;;;;;3.90;2.60;;;;;;;;;;4998829;28;20540;-72
2021/09/05 00:19:57;;;;;;;4.30;3.00;;;;;;;;;;5001692;28;20461;-72
2021/09/05 00:22:22;;;;;;;3.83;3.00;;;;;;;;;;4996366;28;20977;-72
2021/09/05 00:24:49;;;;;;;5.50;2.77;;;;;;;;;;4982897;28;20531;-72
2021/09/05 00:27:15;;;;;;;2.13;1.90;;;;;;;;;;4985567;28;20469;-72
2021/09/05 00:29:40;;;;;;;3.93;1.90;;;;;;;;;;4991565;28;20458;-72
2021/09/05 00:32:07;;;;;;;3.53;2.60;;;;;;;;;;4989646;28;20444;-72
2021/09/05 00:34:33;;;;;;;4.00;3.70;;;;;;;;;;5004225;28;21151;-72
2021/09/05 00:36:59;;;;;;;2.90;1.30;;;;;;;;;;4985119;28;20515;-72
2021/09/05 00:39:25;;;;;;;3.80;1.43;;;;;;;;;;5001734;28;20507;-72
2021/09/05 00:41:51;;;;;;;1.60;1.50;;;;;;;;;;4993345;28;20524;-72
2021/09/05 00:44:17;;;;;;;5.22;3.97;;;;;;;;;;5001589;28;20464;-72
2021/09/05 00:46:43;;;;;;;3.53;3.23;;;;;;;;;;5004037;28;20196;-72
2021/09/05 00:49:10;;;;;;;1.97;1.80;;;;;;;;;;4998201;28;20435;-72
2021/09/05 00:51:38;;;;;;;2.17;1.98;;;;;;;;;;5003838;28;20808;-72
2021/09/05 00:54:05;;;;;;;2.20;1.73;;;;;;;;;;5010652;28;20178;-72
2021/09/05 00:56:33;;;;;;;1.20;1.10;;;;;;;;;;4985505;28;20481;-72
2021/09/05 00:59:02;;;;;;;6.15;1.85;;;;;;;;;;4988538;28;20189;-72
2021/09/05 01:01:29;;;;;;;5.40;1.90;;;;;;;;;;4997189;28;20193;-72
2021/09/05 01:03:55;;;;;;;3.50;3.20;;;;;;;;;;5002194;28;21249;-72
2021/09/05 01:06:21;;;;;;;2.10;2.00;;;;;;;;;;5001444;28;20206;-72
2021/09/05 01:08:48;;;;;;;4.22;3.20;;;;;;;;;;5003021;28;20534;-72
2021/09/05 01:11:15;;;;;;;2.13;1.50;;;;;;;;;;5008783;28;20236;-72
2021/09/05 01:13:41;;;;;;;2.40;2.30;;;;;;;;;;5008051;28;20434;-72
2021/09/05 01:16:22;;;;;;;3.22;1.85;;;;;;;;;;5000937;28;20971;-72
2021/09/05 01:18:48;;;;;;;2.38;1.98;;;;;;;;;;4997261;28;20275;-72
2021/09/05 01:21:13;;;;;;;2.40;2.20;;;;;;;;;;5003859;28;20180;-72
2021/09/05 01:23:39;;;;;;;1.87;1.70;;;;;;;;;;5011106;28;20476;-72
2021/09/05 01:26:06;;;;;;;4.40;2.33;;;;;;;;;;4997592;28;20526;-72
2021/09/05 01:28:32;;;;;;;2.73;2.00;;;;;;;;;;5009646;28;20408;-72
2021/09/05 01:30:57;;;;;;;3.20;2.60;;;;;;;;;;5001905;28;20539;-72
2021/09/05 01:33:23;;;;;;;2.73;2.20;;;;;;;;;;4989433;28;20506;-72
2021/09/05 01:35:49;;;;;;;2.60;2.30;;;;;;;;;;4996917;28;20430;-72
2021/09/05 01:38:15;;;;;;;2.33;1.40;;;;;;;;;;5002801;28;20596;-72
2021/09/05 01:40:41;;;;;;;2.90;2.80;;;;;;;;;;4997124;28;20430;-71
2021/09/05 01:43:07;;;;;;;2.83;2.63;;;;;;;;;;4988911;28;20486;-71
2021/09/05 01:45:33;;;;;;;2.20;1.37;;;;;;;;;;4990918;28;20963;-71
2021/09/05 01:47:59;;;;;;;6.68;3.65;;;;;;;;;;5004541;28;20456;-71
2021/09/05 01:50:25;;;;;;;1.30;1.20;;;;;;;;;;4991344;28;20256;-71
2021/09/05 01:52:52;;;;;;;3.00;2.03;;;;;;;;;;4996198;28;20912;-72
2021/09/05 01:55:18;;;;;;;4.60;3.20;;;;;;;;;;4994757;28;20935;-71
2021/09/05 01:57:44;;;;;;;1.65;1.55;;;;;;;;;;4988765;28;20214;-71
2021/09/05 02:00:10;;;;;;;2.30;2.03;;;;;;;;;;5002112;28;20183;-71
2021/09/05 02:02:36;;;;;;;2.50;2.30;;;;;;;;;;5005103;28;20907;-71
2021/09/05 02:05:02;;;;;;;2.43;1.60;;;;;;;;;;4988391;28;20470;-72
2021/09/05 02:07:28;;;;;;;5.50;1.97;;;;;;;;;;4995274;28;20436;-71
2021/09/05 02:09:54;;;;;;;7.40;4.07;;;;;;;;;;5007584;28;20809;-72
2021/09/05 02:12:21;;;;;;;2.17;2.03;;;;;;;;;;5008091;28;20423;-72
2021/09/05 02:14:47;;;;;;;2.07;1.23;;;;;;;;;;5005531;28;20482;-72
2021/09/05 02:17:13;;;;;;;2.40;2.20;;;;;;;;;;5006957;28;20534;-71
2021/09/05 02:19:39;;;;;;;2.22;1.42;;;;;;;;;;5001518;28;20947;-72
2021/09/05 02:22:06;;;;;;;2.50;1.95;;;;;;;;;;5003162;28;20226;-71
2021/09/05 02:24:32;;;;;;;2.15;1.73;;;;;;;;;;4991901;28;20216;-71
2021/09/05 02:26:58;;;;;;;2.28;1.73;;;;;;;;;;4980084;28;20229;-71
2021/09/05 02:29:24;;;;;;;4.43;2.53;;;;;;;;;;4997549;28;20189;-71
2021/09/05 02:31:53;;;;;;;1.50;1.40;;;;;;;;;;4993873;28;20790;-72
2021/09/05 02:34:19;;;;;;;1.50;1.40;;;;;;;;;;5004805;28;20421;-72
2021/09/05 02:36:46;;;;;;;3.10;2.55;;;;;;;;;;4988965;28;20216;-71
2021/09/05 02:39:12;;;;;;;1.77;1.55;;;;;;;;;;4998763;28;20269;-72
2021/09/05 02:41:38;;;;;;;2.65;1.38;;;;;;;;;;4989134;28;20590;-71
2021/09/05 02:44:04;;;;;;;1.50;1.40;;;;;;;;;;4990367;28;20214;-72
2021/09/05 02:46:30;;;;;;;1.27;1.17;;;;;;;;;;4990649;28;20516;-71
2021/09/05 02:48:56;;;;;;;2.40;2.20;;;;;;;;;;5004610;28;20206;-71
2021/09/05 02:51:22;;;;;;;5.13;2.17;;;;;;;;;;5000210;28;20491;-71
2021/09/05 02:53:48;;;;;;;3.00;1.90;;;;;;;;;;5004553;28;20411;-71
2021/09/05 02:56:14;;;;;;;2.10;1.97;;;;;;;;;;4990453;28;20479;-71
2021/09/05 02:58:41;;;;;;;1.10;1.00;;;;;;;;;;5007112;28;20430;-70
2021/09/05 03:01:07;;;;;;;3.15;2.90;;;;;;;;;;5007745;28;20422;-72
2021/09/05 03:03:33;;;;;;;1.97;1.77;;;;;;;;;;4998950;28;20179;-72
2021/09/05 03:05:59;;;;;;;5.50;1.83;;;;;;;;;;5002600;28;21210;-72
2021/09/05 03:08:25;;;;;;;5.77;3.20;;;;;;;;;;5002308;28;20428;-72
2021/09/05 03:10:51;;;;;;;1.07;0.80;;;;;;;;;;4989640;28;20447;-72
2021/09/05 03:13:17;;;;;;;1.63;1.00;;;;;;;;;;4994682;28;20517;-72
2021/09/05 03:15:43;;;;;;;1.73;1.63;;;;;;;;;;5001899;28;20426;-72
2021/09/05 03:18:09;;;;;;;1.30;1.20;;;;;;;;;;4995452;28;20275;-72
2021/09/05 03:20:35;;;;;;;2.78;2.10;;;;;;;;;;5001152;28;20187;-72
2021/09/05 03:23:01;;;;;;;1.52;1.25;;;;;;;;;;5010733;28;20664;-72
2021/09/05 03:25:27;;;;;;;1.23;1.10;;;;;;;;;;4991043;28;20579;-72
2021/09/05 03:27:53;;;;;;;2.92;1.98;;;;;;;;;;5002579;28;20699;-72
2021/09/05 03:30:19;;;;;;;2.28;2.17;;;;;;;;;;5005531;28;20295;-72
2021/09/05 03:32:45;;;;;;;2.35;2.03;;;;;;;;;;5008129;28;20209;-72
2021/09/05 03:35:11;;;;;;;1.77;1.60;;;;;;;;;;5003874;28;20264;-72
2021/09/05 03:37:37;;;;;;;1.55;1.42;;;;;;;;;;5008278;28;20513;-72
2021/09/05 03:40:03;;;;;;;2.58;1.23;;;;;;;;;;4998510;28;20188;-72
2021/09/05 03:42:29;;;;;;;3.78;1.38;;;;;;;;;;5003065;28;20184;-72
2021/09/05 03:44:55;;;;;;;2.75;1.13;;;;;;;;;;5006424;28;20257;-72
2021/09/05 03:47:24;;;;;;;3.00;2.23;;;;;;;;;;4996603;28;20666;-72
2021/09/05 03:49:50;;;;;;;1.17;0.90;;;;;;;;;;4990737;28;20810;-72
2021/09/05 03:52:16;;;;;;;9.85;1.92;;;;;;;;;;5003753;28;20199;-72
2021/09/05 03:54:42;;;;;;;2.25;1.90;;;;;;;;;;4996928;28;20571;-72
2021/09/05 03:57:08;;;;;;;2.55;2.20;;;;;;;;;;4996767;28;20230;-72
2021/09/05 03:59:34;;;;;;;2.85;1.90;;;;;;;;;;4990250;28;20641;-72
2021/09/05 04:02:00;;;;;;;2.45;2.25;;;;;;;;;;5000728;28;20525;-71
2021/09/05 04:04:26;;;;;;;1.10;1.00;;;;;;;;;;5000315;28;20211;-72
2021/09/05 04:07:01;;;;;;;1.58;1.48;;;;;;;;;;4993057;28;20463;-72
2021/09/05 04:12:17;;;;;;;3.08;2.88;;;;;;;;;;4988086;28;20559;-72
2021/09/05 04:14:43;;;;;;;1.92;1.83;;;;;;;;;;5000339;28;20375;-72
2021/09/05 04:17:09;;;;;;;2.08;1.38;;;;;;;;;;4997157;28;20253;-72
2021/09/05 04:19:35;;;;;;;5.57;2.17;;;;;;;;;;4992032;28;20194;-72
2021/09/05 04:22:03;;;;;;;1.00;0.80;;;;;;;;;;5006156;28;20266;-72
2021/09/05 04:24:29;;;;;;;1.88;1.75;;;;;;;;;;4994254;28;20211;-72
2021/09/05 04:26:55;;;;;;;1.70;1.60;;;;;;;;;;4997731;28;20210;-69
2021/09/05 04:29:21;;;;;;;1.35;1.25;;;;;;;;;;4986888;28;20212;-70
2021/09/05 04:31:47;;;;;;;1.30;1.20;;;;;;;;;;4994312;28;20229;-70
2021/09/05 04:34:13;;;;;;;1.30;1.20;;;;;;;;;;4992218;28;20190;-70
2021/09/05 04:36:39;;;;;;;1.67;1.10;;;;;;;;;;5002564;28;20245;-70
2021/09/05 04:39:05;;;;;;;1.88;1.77;;;;;;;;;;5002971;28;20227;-70
2021/09/05 04:41:32;;;;;;;1.53;1.43;;;;;;;;;;4999423;28;20185;-69
2021/09/05 04:43:58;;;;;;;1.55;1.45;;;;;;;;;;4998244;28;20480;-70
2021/09/05 04:46:24;;;;;;;1.35;1.25;;;;;;;;;;4995224;28;20208;-69
2021/09/05 04:48:50;;;;;;;4.03;2.55;;;;;;;;;;5002103;28;20190;-70
2021/09/05 04:51:16;;;;;;;2.30;2.07;;;;;;;;;;4999403;28;20168;-69
2021/09/05 04:53:42;;;;;;;3.45;1.85;;;;;;;;;;4986075;28;20435;-70
2021/09/05 04:56:08;;;;;;;1.35;1.25;;;;;;;;;;4993664;28;20215;-69
2021/09/05 04:58:34;;;;;;;1.13;1.03;;;;;;;;;;5008495;28;20179;-69
2021/09/05 05:01:00;;;;;;;1.20;1.10;;;;;;;;;;5004325;28;20439;-69
2021/09/05 05:03:26;;;;;;;1.00;0.90;;;;;;;;;;5005231;28;20432;-69
2021/09/05 05:05:52;;;;;;;4.00;1.40;;;;;;;;;;4996987;28;21259;-69
2021/09/05 05:08:18;;;;;;;2.00;1.90;;;;;;;;;;4997741;28;20286;-70
2021/09/05 05:10:47;;;;;;;3.53;1.87;;;;;;;;;;5001303;28;20426;-70
2021/09/05 05:13:13;;;;;;;1.58;1.48;;;;;;;;;;4991089;28;20477;-69
2021/09/05 05:15:39;;;;;;;1.90;1.40;;;;;;;;;;4974637;28;20683;-70
2021/09/05 05:18:05;;;;;;;1.33;1.23;;;;;;;;;;4975613;28;20447;-70
2021/09/05 05:20:31;;;;;;;2.80;2.60;;;;;;;;;;4975613;28;20411;-71
2021/09/05 05:22:57;;;;;;;1.23;1.10;;;;;;;;;;4976642;28;20459;-70
2021/09/05 05:25:26;;;;;;;1.00;0.90;;;;;;;;;;5011281;28;20240;-70
2021/09/05 05:27:52;;;;;;;1.38;1.27;;;;;;;;;;4999534;28;20230;-70
2021/09/05 05:30:18;;;;;;;1.40;1.27;;;;;;;;;;4999535;28;20206;-70
2021/09/05 05:32:44;;;;;;;2.77;2.27;;;;;;;;;;4994349;28;20848;-70
2021/09/05 05:35:10;;;;;;;1.10;0.85;;;;;;;;;;4998333;28;20435;-70
2021/09/05 05:37:36;;;;;;;1.42;1.33;;;;;;;;;;4986889;28;20208;-70
2021/09/05 05:40:06;;;;;;;2.23;1.40;;;;;;;;;;4995101;28;20230;-70
2021/09/05 05:42:32;;;;;;;1.20;1.08;;;;;;;;;;4985729;28;20422;-70
2021/09/05 05:44:58;;;;;;;2.93;1.67;;;;;;;;;;4996106;28;20214;-73
2021/09/05 05:47:27;;;;;;;3.67;1.67;;;;;;;;;;4995714;28;21045;-70
2021/09/05 05:49:53;;;;;;;1.60;1.48;;;;;;;;;;5013801;28;20179;-70
2021/09/05 05:52:18;;;;;;;3.60;1.65;;;;;;;;;;5006331;28;20184;-70
2021/09/05 05:54:44;;;;;;;3.00;1.20;;;;;;;;;;4994200;28;20179;-70
2021/09/05 05:57:10;;;;;;;1.97;1.83;;;;;;;;;;4998028;28;20466;-70
2021/09/05 05:59:36;;;;;;;3.90;1.57;;;;;;;;;;5008282;28;20472;-70
2021/09/05 06:02:02;;;;;;;2.33;1.90;;;;;;;;;;5013307;28;20502;-70
2021/09/05 06:04:29;;;;;;;2.97;2.70;;;;;;;;;;5002287;28;20209;-70
2021/09/05 06:06:55;;;;;;;2.10;1.70;;;;;;;;;;4993616;28;20192;-70
2021/09/05 06:09:22;;;;;;;1.35;1.25;;;;;;;;;;4994017;28;20236;-70
2021/09/05 06:11:48;;;;;;;1.80;1.70;;;;;;;;;;4976667;28;20190;-70
2021/09/05 06:14:14;;;;;;;1.73;1.63;;;;;;;;;;5005385;28;20747;-70
2021/09/05 06:16:40;;;;;;;1.20;1.10;;;;;;;;;;4995290;28;20444;-70
2021/09/05 06:19:06;;;;;;;1.63;1.53;;;;;;;;;;4974331;28;20428;-70
2021/09/05 06:21:32;;;;;;;1.43;1.33;;;;;;;;;;4973978;28;20464;-70
2021/09/05 06:23:58;;;;;;;5.97;3.00;;;;;;;;;;4974229;28;20945;-70
2021/09/05 06:26:24;;;;;;;1.43;1.33;;;;;;;;;;4984171;28;20462;-70
2021/09/05 06:28:50;;;;;;;4.40;2.20;;;;;;;;;;5003748;28;20410;-70
2021/09/05 06:31:16;;;;;;;1.53;1.43;;;;;;;;;;4999291;28;20433;-70
2021/09/05 06:33:42;;;;;;;1.53;1.37;;;;;;;;;;4992340;28;20495;-70
2021/09/05 06:36:08;;;;;;;1.90;1.63;;;;;;;;;;4992922;28;20460;-70
2021/09/05 06:38:34;;;;;;;2.27;2.07;;;;;;;;;;4990974;28;20426;-70
2021/09/05 06:41:00;;;;;;;2.50;1.50;;;;;;;;;;4993055;28;20489;-70
2021/09/05 06:43:26;;;;;;;2.50;2.40;;;;;;;;;;5001182;28;20502;-70
2021/09/05 06:45:52;;;;;;;3.80;2.43;;;;;;;;;;5012700;28;20511;-70
2021/09/05 06:48:18;;;;;;;5.20;1.73;;;;;;;;;;4980902;28;20462;-70
2021/09/05 06:50:44;;;;;;;2.10;1.90;;;;;;;;;;4973735;28;20407;-70
2021/09/05 06:53:10;;;;;;;3.20;1.20;;;;;;;;;;4975381;28;20427;-70
2021/09/05 06:55:36;;;;;;;5.57;2.97;;;;;;;;;;4993130;28;20938;-70
2021/09/05 06:58:02;;;;;;;1.37;1.27;;;;;;;;;;4998346;28;20449;-70
2021/09/05 07:00:28;;;;;;;4.53;1.70;;;;;;;;;;5004947;28;20455;-70
2021/09/05 07:02:53;;;;;;;2.30;2.20;;;;;;;;;;5006488;28;20434;-70
2021/09/05 07:05:19;;;;;;;1.93;1.80;;;;;;;;;;4992771;28;20443;-70
2021/09/05 07:07:45;;;;;;;2.13;2.03;;;;;;;;;;4991726;28;20960;-70
2021/09/05 07:10:12;;;;;;;3.30;3.00;;;;;;;;;;4992335;28;20432;-70
2021/09/05 07:12:38;;;;;;;1.50;1.40;;;;;;;;;;4990330;28;20497;-70
2021/09/05 07:15:04;;;;;;;1.80;1.60;;;;;;;;;;5005197;28;20879;-70
2021/09/05 07:17:30;;;;;;;1.93;1.00;;;;;;;;;;4998270;28;20459;-70
2021/09/05 07:19:56;;;;;;;6.53;3.73;;;;;;;;;;5008904;28;20394;-70
2021/09/05 07:22:22;;;;;;;5.60;1.83;;;;;;;;;;4973142;28;20388;-70
2021/09/05 07:24:48;;;;;;;1.30;1.20;;;;;;;;;;4971813;28;20815;-70
2021/09/05 07:27:14;;;;;;;2.30;1.27;;;;;;;;;;4988892;28;20408;-70
2021/09/05 07:29:40;;;;;;;1.17;1.07;;;;;;;;;;5006511;28;20421;-70
2021/09/05 07:32:06;;;;;;;1.23;1.13;;;;;;;;;;5012031;28;20499;-70
2021/09/05 07:34:32;;;;;;;1.63;1.53;;;;;;;;;;4999855;28;20887;-70
2021/09/05 07:36:58;;;;;;;3.10;2.00;;;;;;;;;;4972655;28;20446;-71
2021/09/05 07:39:24;;;;;;;1.50;1.37;;;;;;;;;;4972847;28;20771;-71
2021/09/05 07:41:50;;;;;;;2.67;2.13;;;;;;;;;;4990807;28;20927;-71
2021/09/05 07:44:16;;;;;;;1.13;1.03;;;;;;;;;;4989478;28;20471;-71
2021/09/05 07:46:42;;;;;;;3.93;2.20;;;;;;;;;;4991932;28;20416;-71
2021/09/05 07:49:08;;;;;;;1.10;1.00;;;;;;;;;;4987454;28;20404;-71
2021/09/05 07:51:34;;;;;;;2.50;2.30;;;;;;;;;;4992169;28;20481;-71
2021/09/05 07:54:00;;;;;;;2.13;1.23;;;;;;;;;;4991443;28;20398;-71
2021/09/05 07:56:26;;;;;;;3.20;2.70;;;;;;;;;;4988440;28;20913;-71
2021/09/05 07:58:52;;;;;;;1.43;1.33;;;;;;;;;;5001842;28;20389;-70
2021/09/05 08:01:18;;;;;;;1.77;1.03;;;;;;;;;;5001206;28;20385;-71
2021/09/05 08:03:44;;;;;;;2.23;2.10;;;;;;;;;;4992113;28;20454;-70
2021/09/05 08:06:10;;;;;;;2.93;1.13;;;;;;;;;;4991714;28;20470;-70
2021/09/05 08:08:37;;;;;;;7.63;1.77;;;;;;;;;;4982020;28;20441;-71
2021/09/05 08:11:04;;;;;;;4.17;1.90;;;;;;;;;;4983937;28;20398;-71
2021/09/05 08:13:30;;;;;;;2.30;1.93;;;;;;;;;;4970228;28;20412;-71
2021/09/05 08:16:00;;;;;;;1.23;1.07;;;;;;;;;;4988852;28;20506;-70
2021/09/05 08:18:26;;;;;;;2.10;1.27;;;;;;;;;;4971872;28;20856;-71
2021/09/05 08:20:52;;;;;;;4.73;1.60;;;;;;;;;;4987550;28;20481;-70
2021/09/05 08:23:18;;;;;;;3.10;2.07;;;;;;;;;;4988039;28;20513;-71
2021/09/05 08:25:44;;;;;;;1.60;1.27;;;;;;;;;;4980128;28;20477;-71
2021/09/05 08:28:12;;;;;;;2.67;2.47;;;;;;;;;;4999346;28;20437;-71
2021/09/05 08:30:38;;;;;;;2.80;1.90;;;;;;;;;;4974898;28;20508;-71
2021/09/05 08:33:04;;;;;;;1.97;1.70;;;;;;;;;;4991857;28;20782;-71
2021/09/05 08:35:31;;;;;;;4.70;2.30;;;;;;;;;;4987716;28;20850;-70
2021/09/05 08:37:57;;;;;;;1.27;1.17;;;;;;;;;;4994454;28;20471;-70
2021/09/05 08:40:23;;;;;;;2.80;2.07;;;;;;;;;;4993115;28;20813;-70
2021/09/05 08:42:52;;;;;;;6.23;2.07;;;;;;;;;;4995374;28;20493;-70
2021/09/05 08:45:18;;;;;;;3.70;2.17;;;;;;;;;;4992839;28;20977;-70
2021/09/05 08:47:44;;;;;;;0.97;0.77;;;;;;;;;;4991337;28;20448;-70
2021/09/05 08:50:10;;;;;;;1.23;1.13;;;;;;;;;;4994494;28;20524;-70
2021/09/05 08:52:37;;;;;;;8.50;2.60;;;;;;;;;;4992003;28;20519;-70
2021/09/05 08:55:03;;;;;;;1.23;1.13;;;;;;;;;;4976777;28;20834;-70
2021/09/05 08:57:29;;;;;;;3.13;2.93;;;;;;;;;;4998991;28;20455;-70
2021/09/05 08:59:55;;;;;;;2.00;1.87;;;;;;;;;;5006854;28;20926;-70
2021/09/05 09:02:21;;;;;;;1.70;1.60;;;;;;;;;;5015451;28;20421;-70
2021/09/05 09:04:51;;;;;;;2.37;1.50;;;;;;;;;;4995612;28;20472;-70
2021/09/05 09:07:17;;;;;;;1.20;1.10;;;;;;;;;;4987618;28;20449;-70
2021/09/05 09:09:55;;;;;;;1.63;1.53;;;;;;;;;;4975437;28;20416;-70
2021/09/05 09:12:36;;;;;;;1.53;1.43;;;;;;;;;;4975495;28;20764;-70
2021/09/05 09:15:02;;;;;;;1.87;1.60;;;;;;;;;;4980011;28;20433;-70
2021/09/05 09:17:36;;;;;;;1.00;0.70;;;;;;;;;;4996052;28;20821;-70
2021/09/05 09:20:03;;;;;;;2.13;1.93;;;;;;;;;;4994916;28;20410;-70
2021/09/05 09:22:28;;;;;;;0.80;0.73;;;;;;;;;;4994706;28;20884;-70
2021/09/05 09:24:55;;;;;;;2.10;1.90;;;;;;;;;;4994671;28;20465;-70
2021/09/05 09:27:21;;;;;;;3.77;2.03;;;;;;;;;;5000668;28;20432;-70
2021/09/05 09:29:47;;;;;;;0.90;0.80;;;;;;;;;;5002907;28;20390;-71
2021/09/05 09:32:21;;;;;;;8.63;1.93;;;;;;;;;;5007990;28;20461;-70
2021/09/05 09:34:48;;;;;;;2.77;1.53;;;;;;;;;;5014088;28;20886;-71
2021/09/05 09:37:16;;;;;;;1.63;1.43;;;;;;;;;;4975098;28;20832;-71
2021/09/05 09:39:43;;;;;;;2.10;1.10;;;;;;;;;;4982172;28;20482;-71
2021/09/05 09:42:09;;;;;;;2.10;0.80;;;;;;;;;;4994212;28;20421;-71
2021/09/05 09:44:35;;;;;;;2.83;1.67;;;;;;;;;;4993882;28;20465;-71
2021/09/05 09:47:09;;;;;;;0.90;0.87;;;;;;;;;;4991956;28;20423;-70
2021/09/05 09:49:47;;;;;;;2.37;1.63;;;;;;;;;;4992498;28;20427;-70
2021/09/05 09:52:13;;;;;;;3.10;1.63;;;;;;;;;;5004190;28;20927;-71
2021/09/05 09:54:40;;;;;;;1.63;1.20;;;;;;;;;;5013414;28;20834;-70
2021/09/05 09:57:07;;;;;;;2.80;1.80;;;;;;;;;;4988162;28;20498;-70
2021/09/05 09:59:33;;;;;;;0.77;0.63;;;;;;;;;;5001721;28;20428;-71
2021/09/05 14:05:56;;;;;;;0.80;0.60;;;;;;;;;;5073292;28;20544;-70
2021/09/05 14:08:22;;;;;;;1.67;1.43;;;;;;;;;;5070503;28;20478;-70
2021/09/05 14:10:48;;;;;;;2.50;0.90;;;;;;;;;;5054524;28;20464;-71
2021/09/05 14:13:14;;;;;;;0.90;0.90;;;;;;;;;;5050834;28;20820;-70
2021/09/05 14:15:40;;;;;;;0.83;0.83;;;;;;;;;;5054667;28;20445;-70
2021/09/05 14:18:06;;;;;;;0.73;0.67;;;;;;;;;;5067844;28;20514;-70
2021/09/05 14:20:32;;;;;;;3.63;1.20;;;;;;;;;;5071020;28;20456;-71
2021/09/05 14:22:58;;;;;;;1.27;0.90;;;;;;;;;;5067510;28;20440;-70
2021/09/05 14:25:24;;;;;;;1.47;1.07;;;;;;;;;;5059117;28;20870;-71
2021/09/05 14:27:55;;;;;;;1.63;0.93;;;;;;;;;;5065570;28;21105;-71
2021/09/05 14:37:28;;;;;;;1.00;0.90;;;;;;;;;;5056104;28;20472;-71
2021/09/05 14:38:35;;;;;;;1.43;1.23;;;;;;;;;;5054585;28;20453;-71
2021/09/05 14:49:29;;;;;;;0.70;0.70;;;;;;;;;;5064365;28;20451;-70
2021/09/05 14:56:53;;;;;;;1.83;1.17;;;;;;;;;;5062870;28;21237;-70
2021/09/05 15:01:59;;;;;;;0.97;0.70;;;;;;;;;;5066128;28;20431;-71
2021/09/05 15:12:18;;;;;;;1.60;1.20;;;;;;;;;;5056910;28;20478;-70
2021/09/05 15:14:44;;;;;;;1.70;1.60;;;;;;;;;;5055338;28;20470;-70
2021/09/05 15:17:10;;;;;;;0.90;0.70;;;;;;;;;;5040545;28;20464;-70
2021/09/05 15:19:36;;;;;;;0.70;0.60;;;;;;;;;;5036912;28;20409;-70
2021/09/05 15:22:13;;;;;;;1.10;0.73;;;;;;;;;;5053311;28;20420;-71
2021/09/05 15:24:39;;;;;;;1.23;1.00;;;;;;;;;;5057436;28;20415;-70
2021/09/05 15:27:09;;;;;;;1.23;1.13;;;;;;;;;;5049024;28;20447;-70
2021/09/05 15:29:42;;;;;;;1.50;0.90;;;;;;;;;;5061561;28;20443;-70
2021/09/05 15:32:36;;;;;;;1.33;0.77;;;;;;;;;;5069522;28;20504;-69
2021/09/05 15:56:09;;;;;;;0.70;0.70;;;;;;;;;;5037304;28;20425;-69
2021/09/05 15:58:40;;;;;;;1.57;1.30;;;;;;;;;;5059524;28;20465;-69
2021/09/05 16:01:28;;;;;;;1.07;0.80;;;;;;;;;;5037133;28;20409;-69
2021/09/05 16:17:05;;;;;;;2.13;1.93;;;;;;;;;;5045697;28;20444;-69
2021/09/05 16:19:31;;;;;;;0.83;0.63;;;;;;;;;;5043382;28;20437;-69
2021/09/05 16:21:57;;;;;;;4.20;1.77;;;;;;;;;;5049084;28;20466;-69
2021/09/05 16:24:23;;;;;;;0.83;0.83;;;;;;;;;;5043847;28;20425;-69
2021/09/05 16:26:49;;;;;;;0.80;0.80;;;;;;;;;;5050819;28;20517;-69
2021/09/05 16:29:27;;;;;;;1.57;1.17;;;;;;;;;;5045880;28;20809;-69
2021/09/05 16:31:54;;;;;;;1.53;1.00;;;;;;;;;;5048994;28;20420;-69
2021/09/05 16:34:30;;;;;;;1.03;1.03;;;;;;;;;;5055271;28;20467;-69
2021/09/05 16:42:26;;;;;;;0.60;0.60;;;;;;;;;;5056680;28;20467;-69
2021/09/05 16:44:52;;;;;;;0.60;0.60;;;;;;;;;;5048998;28;20444;-69
2021/09/05 16:47:18;;;;;;;1.23;1.13;;;;;;;;;;5044940;28;20449;-69
2021/09/05 16:49:44;;;;;;;0.60;0.57;;;;;;;;;;5055183;28;20480;-69
2021/09/05 16:52:09;;;;;;;2.10;0.90;;;;;;;;;;5042180;28;20879;-69
2021/09/05 16:54:35;;;;;;;0.70;0.70;;;;;;;;;;5047369;28;20465;-69
2021/09/05 16:57:01;;;;;;;0.97;0.87;;;;;;;;;;5045956;28;20473;-69
2021/09/05 16:59:27;;;;;;;1.77;1.03;;;;;;;;;;5051852;28;20518;-69
2021/09/05 17:01:53;;;;;;;1.13;1.13;;;;;;;;;;5049595;28;20421;-69
2021/09/05 17:04:19;;;;;;;0.70;0.70;;;;;;;;;;5046346;28;20459;-69
2021/09/05 17:06:45;;;;;;;0.80;0.60;;;;;;;;;;5049117;28;20570;-69
2021/09/05 17:09:11;;;;;;;1.30;1.10;;;;;;;;;;5044071;28;20431;-69
2021/09/05 17:11:37;;;;;;;1.53;0.80;;;;;;;;;;5053893;28;20961;-69
2021/09/05 17:14:03;;;;;;;0.87;0.80;;;;;;;;;;5047598;28;21125;-69
2021/09/05 17:16:29;;;;;;;1.33;1.10;;;;;;;;;;5036191;28;20460;-69
2021/09/05 17:18:55;;;;;;;1.97;1.33;;;;;;;;;;5022788;28;20433;-69
2021/09/05 17:21:23;;;;;;;1.07;1.07;;;;;;;;;;5025247;28;20437;-69
2021/09/05 17:23:50;;;;;;;2.00;1.90;;;;;;;;;;5034125;28;20445;-69
2021/09/05 17:26:16;;;;;;;0.90;0.90;;;;;;;;;;5025200;28;20436;-69
2021/09/05 17:28:43;;;;;;;2.10;1.13;;;;;;;;;;5024271;28;20936;-69
2021/09/05 17:31:09;;;;;;;1.93;1.20;;;;;;;;;;5025887;28;20424;-69
2021/09/05 17:33:35;;;;;;;1.03;1.03;;;;;;;;;;5047058;28;20428;-69
2021/09/05 17:36:01;;;;;;;1.00;1.00;;;;;;;;;;5049231;28;20400;-69
2021/09/05 17:38:27;;;;;;;0.70;0.63;;;;;;;;;;5047030;28;20431;-69
2021/09/05 17:40:53;;;;;;;1.50;1.37;;;;;;;;;;5042404;28;20521;-70
2021/09/05 17:43:19;;;;;;;1.37;1.27;;;;;;;;;;5042573;28;20408;-69
2021/09/05 17:45:45;;;;;;;1.10;1.10;;;;;;;;;;5041437;28;20447;-69
2021/09/05 17:48:11;;;;;;;1.50;1.40;;;;;;;;;;5044876;28;20442;-69
2021/09/05 17:50:37;;;;;;;1.53;1.43;;;;;;;;;;5044387;28;20428;-69
2021/09/05 17:53:02;;;;;;;1.87;1.77;;;;;;;;;;5049412;28;20416;-69
2021/09/05 17:55:28;;;;;;;1.00;0.83;;;;;;;;;;5042509;28;20516;-69
2021/09/05 17:57:54;;;;;;;1.80;1.00;;;;;;;;;;5044925;28;20444;-69
2021/09/05 18:00:21;;;;;;;1.43;1.33;;;;;;;;;;5043335;28;20447;-69
2021/09/05 18:02:49;;;;;;;1.20;1.10;;;;;;;;;;5043881;28;20429;-69
2021/09/05 18:05:15;;;;;;;2.53;2.33;;;;;;;;;;5040575;28;20456;-69
2021/09/05 18:07:41;;;;;;;2.00;1.57;;;;;;;;;;5040615;28;20460;-69
2021/09/05 18:10:07;;;;;;;1.33;1.23;;;;;;;;;;5046480;28;20432;-69
2021/09/05 18:12:33;;;;;;;1.10;1.00;;;;;;;;;;5043679;28;20455;-69
2021/09/05 18:14:59;;;;;;;1.27;1.17;;;;;;;;;;5041659;28;20470;-69
2021/09/05 18:17:25;;;;;;;2.33;1.57;;;;;;;;;;5040844;28;20436;-69
2021/09/05 18:19:51;;;;;;;1.60;1.33;;;;;;;;;;5046334;28;20414;-69
2021/09/05 18:22:17;;;;;;;1.00;1.00;;;;;;;;;;5046288;28;20424;-69
2021/09/05 18:24:43;;;;;;;1.57;1.27;;;;;;;;;;5042895;28;20437;-69
2021/09/05 18:27:09;;;;;;;2.03;1.10;;;;;;;;;;5047513;28;20440;-69
2021/09/05 18:29:35;;;;;;;1.92;1.20;;;;;;;;;;5049847;28;20411;-68
2021/09/05 18:32:01;;;;;;;1.90;1.70;;;;;;;;;;5045365;28;20813;-69
2021/09/05 18:34:27;;;;;;;2.00;1.83;;;;;;;;;;5046813;28;20214;-69
2021/09/05 18:36:53;;;;;;;0.90;0.90;;;;;;;;;;5042676;28;20451;-69
2021/09/05 18:39:19;;;;;;;2.47;2.10;;;;;;;;;;5045088;28;20970;-69
2021/09/05 18:41:46;;;;;;;1.60;1.50;;;;;;;;;;5040237;28;20500;-69
2021/09/05 18:44:12;;;;;;;6.80;1.93;;;;;;;;;;5042204;28;20456;-69
2021/09/05 18:46:38;;;;;;;1.20;1.10;;;;;;;;;;5041776;28;21034;-70
2021/09/05 18:49:11;;;;;;;1.47;1.37;;;;;;;;;;5047661;28;20418;-69
2021/09/05 18:51:37;;;;;;;1.67;1.57;;;;;;;;;;5040109;28;20435;-69
2021/09/05 18:54:02;;;;;;;1.50;1.40;;;;;;;;;;5048619;28;20922;-69
2021/09/05 18:56:28;;;;;;;0.90;0.87;;;;;;;;;;5043485;28;20935;-69
2021/09/05 18:58:54;;;;;;;0.90;0.90;;;;;;;;;;5056642;28;20410;-69
2021/09/05 19:01:20;;;;;;;1.23;1.13;;;;;;;;;;5046665;28;20489;-70
2021/09/05 19:03:46;;;;;;;1.20;1.10;;;;;;;;;;5046570;28;20506;-70
2021/09/05 19:06:12;;;;;;;1.23;1.13;;;;;;;;;;5043673;28;20462;-69
2021/09/05 19:08:38;;;;;;;1.23;1.13;;;;;;;;;;5046238;28;20439;-69
2021/09/05 19:11:04;;;;;;;2.10;1.17;;;;;;;;;;5041610;28;20929;-69
2021/09/05 19:13:30;;;;;;;2.97;1.27;;;;;;;;;;5045587;28;20394;-69
2021/09/05 19:15:56;;;;;;;1.00;1.00;;;;;;;;;;5042549;28;20469;-69
2021/09/05 19:18:22;;;;;;;2.00;1.67;;;;;;;;;;5040653;28;20904;-69
2021/09/05 19:20:48;;;;;;;1.40;1.30;;;;;;;;;;5044654;28;20817;-69
2021/09/05 19:23:14;;;;;;;1.10;1.00;;;;;;;;;;5046218;28;20929;-69
2021/09/05 19:25:41;;;;;;;1.70;1.33;;;;;;;;;;5045823;28;20457;-69
2021/09/05 19:28:08;;;;;;;1.13;1.03;;;;;;;;;;5050408;28;20443;-69
2021/09/05 19:30:34;;;;;;;1.93;1.83;;;;;;;;;;5051572;28;20412;-69
2021/09/05 19:33:00;;;;;;;2.10;1.30;;;;;;;;;;5040411;28;20873;-69
2021/09/05 19:35:26;;;;;;;2.40;1.43;;;;;;;;;;5045654;28;20490;-69
2021/09/05 19:37:52;;;;;;;1.10;0.97;;;;;;;;;;5045843;28;20429;-69
2021/09/05 19:40:18;;;;;;;1.17;1.07;;;;;;;;;;5042861;28;20470;-70
2021/09/05 19:42:44;;;;;;;1.10;0.97;;;;;;;;;;5037430;28;20408;-70
2021/09/05 19:45:10;;;;;;;1.50;1.40;;;;;;;;;;5039637;28;20791;-69
2021/09/05 19:47:36;;;;;;;1.80;1.43;;;;;;;;;;5044756;28;20512;-70
2021/09/05 19:50:03;;;;;;;1.73;1.63;;;;;;;;;;5034586;28;20430;-70
2021/09/05 19:52:29;;;;;;;1.30;1.20;;;;;;;;;;5040799;28;20430;-69
2021/09/05 19:54:55;;;;;;;1.47;1.37;;;;;;;;;;5037700;28;20460;-69